Flood From: 22-02-2018 16:00 Until: 23-02-2018 16:00 warning for: Flood Level: Yellow info button

Although rather usual in this region, locally or potentially dangerous phenomena are expected. (such as local winds, summer thunderstorms, rising streams or high waves) Be aware and pay attention to the latest weather updates, especially if you carry out activities exposed to weather or close to a stream or shoreline. 


Meteo18 Weather Cam more information Meteo18 Weather Cam


Thunder radar more information blitzortung!


Rain radar more information rain snow radar


Visit our other weather sites:

Template documentation
and downloads

And another site



Weather Underground History page Text

Daily Summary for August 20, 2017 Units:  Both    English   Metric
« Previous Day
Next Day »
Daily Weekly Monthly Yearly Custom
  High: Low: Average:
Temperature: TemperatureC °F /  -17.8 °C 11.1 °F /  -11.6 °C 17 °F /  -8.3 °C
Dew Point: DewpointC °F /  -17.8 °C 9.3 °F /  -12.6 °C 10.5 °F /  -11.9 °C
Humidity: Humidity % 45 % 68 %
Wind Speed: WindSpeedKMH mph /  0 km/h - 2.1 mph /  3.4 km/h
Wind Gust: WindSpeedGustKMH mph /  0 km/h - -
Wind:- - SW
Pressure: PressurehPa in /  0 hPa 1024.9 in /  34703.1 hPa -
Precipitation: 0.0 in /  0 mm    
Historical Graphs
 
 
Tabular Data for August 20, 2017
Time Temperature Dew Point Pressure Wind Wind Speed Wind Gust Humidity Rainfall Rate (Hourly)
TemperatureC °F /  -17.8 °C DewpointC °F /  -17.8 °C PressurehPa in /  0 hPa Calm     Humidity % HourlyPrecipMM in /  0 mm
00:02 12.6 °F /  -10.8 °C 10.0 °F /  -12.2 °C 1025.3 in /  34716.7 hPa Calm     84 % 0.0 in /  0 mm
00:12 12.7 °F /  -10.7 °C 10.1 °F /  -12.2 °C 1025.3 in /  34716.7 hPa Calm     84 % 0.0 in /  0 mm
00:17 12.7 °F /  -10.7 °C 10.1 °F /  -12.2 °C 1025.3 in /  34716.7 hPa Calm     84 % 0.0 in /  0 mm
00:22 12.7 °F /  -10.7 °C 10.2 °F /  -12.1 °C 1025.3 in /  34716.7 hPa Calm     85 % 0.0 in /  0 mm
00:27 12.7 °F /  -10.7 °C 10.2 °F /  -12.1 °C 1025.3 in /  34716.7 hPa Calm     85 % 0.0 in /  0 mm
00:32 12.7 °F /  -10.7 °C 10.2 °F /  -12.1 °C 1024.9 in /  34703.1 hPa Calm     85 % 0.0 in /  0 mm
00:42 12.8 °F /  -10.7 °C 10.2 °F /  -12.1 °C 1024.9 in /  34703.1 hPa Calm     84 % 0.0 in /  0 mm
00:47 12.8 °F /  -10.7 °C 10.2 °F /  -12.1 °C 1024.9 in /  34703.1 hPa Calm   1.6 mph /  2.6 km/h 84 % 0.0 in /  0 mm
00:57 13.5 °F /  -10.3 °C 10.1 °F /  -12.2 °C 1024.9 in /  34703.1 hPa Calm   3.2 mph /  5.1 km/h 80 % 0.0 in /  0 mm
01:02 13.9 °F /  -10.1 °C 10.5 °F /  -11.9 °C 1024.9 in /  34703.1 hPa Calm   3.2 mph /  5.1 km/h 80 % 0.0 in /  0 mm
01:07 14.2 °F /  -9.9 °C 10.4 °F /  -12 °C 1024.9 in /  34703.1 hPa Calm   3.2 mph /  5.1 km/h 78 % 0.0 in /  0 mm
01:12 14.4 °F /  -9.8 °C 10.4 °F /  -12 °C 1024.9 in /  34703.1 hPa NW 1.6 mph /  2.6 km/h 3.2 mph /  5.1 km/h 77 % 0.0 in /  0 mm
01:17 14.6 °F /  -9.7 °C 10.4 °F /  -12 °C 1024.9 in /  34703.1 hPa NW 1.6 mph /  2.6 km/h 3.2 mph /  5.1 km/h 76 % 0.0 in /  0 mm
01:22 14.8 °F /  -9.6 °C 10.6 °F /  -11.9 °C 1024.9 in /  34703.1 hPa Calm   3.2 mph /  5.1 km/h 76 % 0.0 in /  0 mm
01:27 14.9 °F /  -9.5 °C 10.7 °F /  -11.8 °C 1024.9 in /  34703.1 hPa Calm   3.2 mph /  5.1 km/h 76 % 0.0 in /  0 mm
01:32 14.9 °F /  -9.5 °C 10.5 °F /  -11.9 °C 1024.9 in /  34703.1 hPa Calm   3.2 mph /  5.1 km/h 75 % 0.0 in /  0 mm
01:42 14.9 °F /  -9.5 °C 10.5 °F /  -11.9 °C 1024.9 in /  34703.1 hPa Calm   3.2 mph /  5.1 km/h 75 % 0.0 in /  0 mm
01:52 14.8 °F /  -9.6 °C 10.4 °F /  -12 °C 1024.9 in /  34703.1 hPa NW 1.6 mph /  2.6 km/h 3.2 mph /  5.1 km/h 75 % 0.0 in /  0 mm
01:57 14.7 °F /  -9.6 °C 10.3 °F /  -12.1 °C 1024.9 in /  34703.1 hPa WNW 1.6 mph /  2.6 km/h 3.2 mph /  5.1 km/h 75 % 0.0 in /  0 mm
02:02 14.7 °F /  -9.6 °C 10.3 °F /  -12.1 °C 1024.9 in /  34703.1 hPa Calm   3.2 mph /  5.1 km/h 75 % 0.0 in /  0 mm
02:07 14.5 °F /  -9.7 °C 10.3 °F /  -12.1 °C 1024.9 in /  34703.1 hPa Calm   3.2 mph /  5.1 km/h 76 % 0.0 in /  0 mm
02:12 14.3 °F /  -9.8 °C 10.3 °F /  -12.1 °C 1024.9 in /  34703.1 hPa Calm   3.2 mph /  5.1 km/h 77 % 0.0 in /  0 mm
02:22 13.7 °F /  -10.2 °C 10.3 °F /  -12.1 °C 1024.9 in /  34703.1 hPa Calm   1.6 mph /  2.6 km/h 80 % 0.0 in /  0 mm
02:27 13.6 °F /  -10.2 °C 10.2 °F /  -12.1 °C 1024.9 in /  34703.1 hPa WNW 3.2 mph /  5.1 km/h 3.2 mph /  5.1 km/h 80 % 0.0 in /  0 mm
02:32 13.6 °F /  -10.2 °C 10.2 °F /  -12.1 °C 1024.9 in /  34703.1 hPa WNW 1.6 mph /  2.6 km/h 3.2 mph /  5.1 km/h 80 % 0.0 in /  0 mm
02:37 13.5 °F /  -10.3 °C 10.3 °F /  -12.1 °C 1024.9 in /  34703.1 hPa Calm   4.8 mph /  7.7 km/h 81 % 0.0 in /  0 mm
02:42 13.5 °F /  -10.3 °C 10.3 °F /  -12.1 °C 1024.9 in /  34703.1 hPa Calm   4.8 mph /  7.7 km/h 81 % 0.0 in /  0 mm
02:47 13.7 °F /  -10.2 °C 10.3 °F /  -12.1 °C 1024.9 in /  34703.1 hPa NNW 3.2 mph /  5.1 km/h 3.2 mph /  5.1 km/h 80 % 0.0 in /  0 mm
02:52 13.8 °F /  -10.1 °C 10.2 °F /  -12.1 °C 1024.9 in /  34703.1 hPa Calm   3.2 mph /  5.1 km/h 79 % 0.0 in /  0 mm
03:02 13.7 °F /  -10.2 °C 10.1 °F /  -12.2 °C 1024.9 in /  34703.1 hPa Calm   4.8 mph /  7.7 km/h 79 % 0.0 in /  0 mm
03:07 13.6 °F /  -10.2 °C 10.2 °F /  -12.1 °C 1024.9 in /  34703.1 hPa NNE 4.8 mph /  7.7 km/h 4.8 mph /  7.7 km/h 80 % 0.0 in /  0 mm
03:12 13.4 °F /  -10.3 °C 10.2 °F /  -12.1 °C 1024.9 in /  34703.1 hPa NNW 3.2 mph /  5.1 km/h 4.8 mph /  7.7 km/h 81 % 0.0 in /  0 mm
03:17 13.6 °F /  -10.2 °C 10.4 °F /  -12 °C 1024.9 in /  34703.1 hPa NNE 3.2 mph /  5.1 km/h 4.8 mph /  7.7 km/h 81 % 0.0 in /  0 mm
03:22 13.6 °F /  -10.2 °C 10.2 °F /  -12.1 °C 1024.9 in /  34703.1 hPa WNW 1.6 mph /  2.6 km/h 6.4 mph /  10.3 km/h 80 % 0.0 in /  0 mm
03:27 13.5 °F /  -10.3 °C 10.3 °F /  -12.1 °C 1024.9 in /  34703.1 hPa West 1.6 mph /  2.6 km/h 6.4 mph /  10.3 km/h 81 % 0.0 in /  0 mm
03:32 13.4 °F /  -10.3 °C 10.2 °F /  -12.1 °C 1024.9 in /  34703.1 hPa NW 1.6 mph /  2.6 km/h 6.4 mph /  10.3 km/h 81 % 0.0 in /  0 mm
03:37 13.3 °F /  -10.4 °C 10.3 °F /  -12.1 °C 1025.3 in /  34716.7 hPa NW 1.6 mph /  2.6 km/h 4.8 mph /  7.7 km/h 82 % 0.0 in /  0 mm
03:42 13.3 °F /  -10.4 °C 10.3 °F /  -12.1 °C 1025.3 in /  34716.7 hPa WNW 3.2 mph /  5.1 km/h 4.8 mph /  7.7 km/h 82 % 0.0 in /  0 mm
03:47 13.2 °F /  -10.4 °C 10.4 °F /  -12 °C 1025.3 in /  34716.7 hPa Calm   4.8 mph /  7.7 km/h 83 % 0.0 in /  0 mm
03:52 13.2 °F /  -10.4 °C 10.4 °F /  -12 °C 1025.3 in /  34716.7 hPa Calm   4.8 mph /  7.7 km/h 83 % 0.0 in /  0 mm
03:57 13.1 °F /  -10.5 °C 10.3 °F /  -12.1 °C 1025.3 in /  34716.7 hPa Calm   4.8 mph /  7.7 km/h 83 % 0.0 in /  0 mm
04:02 13.1 °F /  -10.5 °C 10.5 °F /  -11.9 °C 1025.3 in /  34716.7 hPa NW 1.6 mph /  2.6 km/h 4.8 mph /  7.7 km/h 84 % 0.0 in /  0 mm
04:12 12.9 °F /  -10.6 °C 10.3 °F /  -12.1 °C 1024.9 in /  34703.1 hPa Calm   3.2 mph /  5.1 km/h 84 % 0.0 in /  0 mm
04:17 12.8 °F /  -10.7 °C 10.2 °F /  -12.1 °C 1024.9 in /  34703.1 hPa Calm   3.2 mph /  5.1 km/h 84 % 0.0 in /  0 mm
04:22 12.8 °F /  -10.7 °C 10.3 °F /  -12.1 °C 1024.9 in /  34703.1 hPa Calm   1.6 mph /  2.6 km/h 85 % 0.0 in /  0 mm
04:27 12.8 °F /  -10.7 °C 10.3 °F /  -12.1 °C 1025.3 in /  34716.7 hPa NW 1.6 mph /  2.6 km/h 1.6 mph /  2.6 km/h 85 % 0.0 in /  0 mm
04:32 12.8 °F /  -10.7 °C 10.3 °F /  -12.1 °C 1025.3 in /  34716.7 hPa Calm   1.6 mph /  2.6 km/h 85 % 0.0 in /  0 mm
04:42 12.6 °F /  -10.8 °C 10.1 °F /  -12.2 °C 1025.3 in /  34716.7 hPa North 1.6 mph /  2.6 km/h 3.2 mph /  5.1 km/h 85 % 0.0 in /  0 mm
04:47 12.4 °F /  -10.9 °C 9.9 °F /  -12.3 °C 1025.3 in /  34716.7 hPa North 1.6 mph /  2.6 km/h 1.6 mph /  2.6 km/h 85 % 0.0 in /  0 mm
04:52 12.3 °F /  -10.9 °C 10.0 °F /  -12.2 °C 1025.3 in /  34716.7 hPa NNW 3.2 mph /  5.1 km/h 3.2 mph /  5.1 km/h 86 % 0.0 in /  0 mm
05:02 12.3 °F /  -10.9 °C 10.0 °F /  -12.2 °C 1025.3 in /  34716.7 hPa NW 3.2 mph /  5.1 km/h 3.2 mph /  5.1 km/h 86 % 0.0 in /  0 mm
05:17 12.4 °F /  -10.9 °C 10.1 °F /  -12.2 °C 1025.6 in /  34726.8 hPa NNW 3.2 mph /  5.1 km/h 4.8 mph /  7.7 km/h 86 % 0.0 in /  0 mm
05:22 12.6 °F /  -10.8 °C 10.3 °F /  -12.1 °C 1025.6 in /  34726.8 hPa NNW 1.6 mph /  2.6 km/h 4.8 mph /  7.7 km/h 86 % 0.0 in /  0 mm
05:32 12.5 °F /  -10.8 °C 10.2 °F /  -12.1 °C 1025.6 in /  34726.8 hPa NNW 1.6 mph /  2.6 km/h 4.8 mph /  7.7 km/h 86 % 0.0 in /  0 mm
05:42 12.3 °F /  -10.9 °C 10.0 °F /  -12.2 °C 1025.6 in /  34726.8 hPa North 1.6 mph /  2.6 km/h 4.8 mph /  7.7 km/h 86 % 0.0 in /  0 mm
05:47 12.3 °F /  -10.9 °C 10.0 °F /  -12.2 °C 1025.6 in /  34726.8 hPa NNW 1.6 mph /  2.6 km/h 3.2 mph /  5.1 km/h 86 % 0.0 in /  0 mm
05:52 12.3 °F /  -10.9 °C 10.0 °F /  -12.2 °C 1025.6 in /  34726.8 hPa Calm   3.2 mph /  5.1 km/h 86 % 0.0 in /  0 mm
06:02 12.2 °F /  -11 °C 10.1 °F /  -12.2 °C 1025.6 in /  34726.8 hPa Calm   3.2 mph /  5.1 km/h 87 % 0.0 in /  0 mm
06:12 12.1 °F /  -11.1 °C 10.0 °F /  -12.2 °C 1025.6 in /  34726.8 hPa Calm   3.2 mph /  5.1 km/h 87 % 0.0 in /  0 mm
06:17 12.1 °F /  -11.1 °C 10.2 °F /  -12.1 °C 1025.6 in /  34726.8 hPa NNW 1.6 mph /  2.6 km/h 3.2 mph /  5.1 km/h 88 % 0.0 in /  0 mm
06:22 12.0 °F /  -11.1 °C 10.1 °F /  -12.2 °C 1025.6 in /  34726.8 hPa North 1.6 mph /  2.6 km/h 3.2 mph /  5.1 km/h 88 % 0.0 in /  0 mm
06:27 12.1 °F /  -11.1 °C 10.2 °F /  -12.1 °C 1025.6 in /  34726.8 hPa NNW 3.2 mph /  5.1 km/h 4.8 mph /  7.7 km/h 88 % 0.0 in /  0 mm
06:32 12.1 °F /  -11.1 °C 10.0 °F /  -12.2 °C 1025.6 in /  34726.8 hPa Calm   4.8 mph /  7.7 km/h 87 % 0.0 in /  0 mm
06:42 11.6 °F /  -11.3 °C 9.5 °F /  -12.5 °C 1025.6 in /  34726.8 hPa Calm   4.8 mph /  7.7 km/h 87 % 0.0 in /  0 mm
06:47 11.4 °F /  -11.4 °C 9.7 °F /  -12.4 °C 1025.6 in /  34726.8 hPa Calm   1.6 mph /  2.6 km/h 89 % 0.0 in /  0 mm
06:52 11.4 °F /  -11.4 °C 9.7 °F /  -12.4 °C 1025.6 in /  34726.8 hPa Calm   1.6 mph /  2.6 km/h 89 % 0.0 in /  0 mm
06:57 11.3 °F /  -11.5 °C 9.6 °F /  -12.4 °C 1025.6 in /  34726.8 hPa WNW 1.6 mph /  2.6 km/h 1.6 mph /  2.6 km/h 89 % 0.0 in /  0 mm
07:02 11.2 °F /  -11.6 °C 9.8 °F /  -12.3 °C 1025.6 in /  34726.8 hPa Calm   1.6 mph /  2.6 km/h 91 % 0.0 in /  0 mm
07:12 11.3 °F /  -11.5 °C 9.6 °F /  -12.4 °C 1026.0 in /  34740.4 hPa WNW 1.6 mph /  2.6 km/h 3.2 mph /  5.1 km/h 89 % 0.0 in /  0 mm
07:17 11.1 °F /  -11.6 °C 9.7 °F /  -12.4 °C 1026.0 in /  34740.4 hPa WNW 1.6 mph /  2.6 km/h 1.6 mph /  2.6 km/h 91 % 0.0 in /  0 mm
07:22 11.1 °F /  -11.6 °C 9.7 °F /  -12.4 °C 1026.0 in /  34740.4 hPa Calm   1.6 mph /  2.6 km/h 91 % 0.0 in /  0 mm
07:32 11.2 °F /  -11.6 °C 9.8 °F /  -12.3 °C 1026.0 in /  34740.4 hPa WNW 1.6 mph /  2.6 km/h 3.2 mph /  5.1 km/h 91 % 0.0 in /  0 mm
07:42 11.5 °F /  -11.4 °C 10.2 °F /  -12.1 °C 1026.0 in /  34740.4 hPa Calm   3.2 mph /  5.1 km/h 92 % 0.0 in /  0 mm
07:52 11.9 °F /  -11.2 °C 10.3 °F /  -12.1 °C 1026.3 in /  34750.5 hPa Calm   3.2 mph /  5.1 km/h 90 % 0.0 in /  0 mm
08:02 12.2 °F /  -11 °C 10.6 °F /  -11.9 °C 1026.3 in /  34750.5 hPa Calm   3.2 mph /  5.1 km/h 90 % 0.0 in /  0 mm
08:12 12.7 °F /  -10.7 °C 10.9 °F /  -11.7 °C 1026.6 in /  34760.7 hPa Calm   9.7 mph /  15.6 km/h 89 % 0.0 in /  0 mm
08:17 12.9 °F /  -10.6 °C 11.0 °F /  -11.7 °C 1026.6 in /  34760.7 hPa Calm   3.2 mph /  5.1 km/h 88 % 0.0 in /  0 mm
08:22 13.1 °F /  -10.5 °C 11.0 °F /  -11.7 °C 1026.6 in /  34760.7 hPa WNW 1.6 mph /  2.6 km/h 3.2 mph /  5.1 km/h 87 % 0.0 in /  0 mm
08:27 13.2 °F /  -10.4 °C 11.1 °F /  -11.6 °C 1026.6 in /  34760.7 hPa Calm   4.8 mph /  7.7 km/h 87 % 0.0 in /  0 mm
08:32 13.4 °F /  -10.3 °C 11.1 °F /  -11.6 °C 1026.6 in /  34760.7 hPa West 1.6 mph /  2.6 km/h 4.8 mph /  7.7 km/h 86 % 0.0 in /  0 mm
08:42 14.1 °F /  -9.9 °C 11.6 °F /  -11.3 °C 1026.6 in /  34760.7 hPa WNW 3.2 mph /  5.1 km/h 4.8 mph /  7.7 km/h 85 % 0.0 in /  0 mm
08:47 14.2 °F /  -9.9 °C 11.5 °F /  -11.4 °C 1026.6 in /  34760.7 hPa Calm   4.8 mph /  7.7 km/h 84 % 0.0 in /  0 mm
08:52 14.4 °F /  -9.8 °C 11.5 °F /  -11.4 °C 1026.6 in /  34760.7 hPa Calm   4.8 mph /  7.7 km/h 83 % 0.0 in /  0 mm
09:02 14.9 °F /  -9.5 °C 11.9 °F /  -11.2 °C 1027.0 in /  34774.2 hPa NNE 6.4 mph /  10.3 km/h 6.4 mph /  10.3 km/h 82 % 0.0 in /  0 mm
09:12 15.1 °F /  -9.4 °C 11.9 °F /  -11.2 °C 1027.0 in /  34774.2 hPa NNW 6.4 mph /  10.3 km/h 8.0 mph /  12.9 km/h 81 % 0.0 in /  0 mm
09:17 15.3 °F /  -9.3 °C 11.9 °F /  -11.2 °C 1027.0 in /  34774.2 hPa North 6.4 mph /  10.3 km/h 9.7 mph /  15.6 km/h 80 % 0.0 in /  0 mm
09:22 15.5 °F /  -9.2 °C 12.1 °F /  -11.1 °C 1027.3 in /  34784.4 hPa North 4.8 mph /  7.7 km/h 9.7 mph /  15.6 km/h 80 % 0.0 in /  0 mm
09:32 15.8 °F /  -9 °C 12.4 °F /  -10.9 °C 1027.0 in /  34774.2 hPa NNE 11.3 mph /  18.2 km/h 11.3 mph /  18.2 km/h 80 % 0.0 in /  0 mm
09:42 16.3 °F /  -8.7 °C 11.9 °F /  -11.2 °C 1027.3 in /  34784.4 hPa NE 4.8 mph /  7.7 km/h 12.9 mph /  20.8 km/h 75 % 0.0 in /  0 mm
09:52 16.4 °F /  -8.7 °C 11.8 °F /  -11.2 °C 1027.3 in /  34784.4 hPa ENE 3.2 mph /  5.1 km/h 12.9 mph /  20.8 km/h 74 % 0.0 in /  0 mm
10:02 16.8 °F /  -8.4 °C 11.9 °F /  -11.2 °C 1027.3 in /  34784.4 hPa ENE 6.4 mph /  10.3 km/h 12.9 mph /  20.8 km/h 73 % 0.0 in /  0 mm
10:12 16.9 °F /  -8.4 °C 11.4 °F /  -11.4 °C 1027.7 in /  34797.9 hPa ENE 11.3 mph /  18.2 km/h 11.3 mph /  18.2 km/h 70 % 0.0 in /  0 mm
10:17 16.8 °F /  -8.4 °C 11.1 °F /  -11.6 °C 1027.3 in /  34784.4 hPa NE 3.2 mph /  5.1 km/h 14.5 mph /  23.3 km/h 69 % 0.0 in /  0 mm
10:22 17.1 °F /  -8.3 °C 11.4 °F /  -11.4 °C 1027.7 in /  34797.9 hPa NE 8.0 mph /  12.9 km/h 14.5 mph /  23.3 km/h 69 % 0.0 in /  0 mm
10:32 17.2 °F /  -8.2 °C 11.7 °F /  -11.3 °C 1027.7 in /  34797.9 hPa East 6.4 mph /  10.3 km/h 12.9 mph /  20.8 km/h 70 % 0.0 in /  0 mm
10:37 17.3 °F /  -8.2 °C 11.6 °F /  -11.3 °C 1027.7 in /  34797.9 hPa ENE 3.2 mph /  5.1 km/h 12.9 mph /  20.8 km/h 69 % 0.0 in /  0 mm
10:42 17.4 °F /  -8.1 °C 11.4 °F /  -11.4 °C 1027.7 in /  34797.9 hPa ENE 1.6 mph /  2.6 km/h 12.9 mph /  20.8 km/h 68 % 0.0 in /  0 mm
10:47 17.4 °F /  -8.1 °C 11.4 °F /  -11.4 °C 1027.7 in /  34797.9 hPa West 3.2 mph /  5.1 km/h 9.7 mph /  15.6 km/h 68 % 0.0 in /  0 mm
10:52 17.5 °F /  -8.1 °C 11.5 °F /  -11.4 °C 1027.7 in /  34797.9 hPa NNE 8.0 mph /  12.9 km/h 9.7 mph /  15.6 km/h 68 % 0.0 in /  0 mm
10:57 17.6 °F /  -8 °C 11.4 °F /  -11.4 °C 1027.7 in /  34797.9 hPa NE 6.4 mph /  10.3 km/h 9.7 mph /  15.6 km/h 67 % 0.0 in /  0 mm
11:02 17.6 °F /  -8 °C 11.2 °F /  -11.6 °C 1027.7 in /  34797.9 hPa NNE 4.8 mph /  7.7 km/h 9.7 mph /  15.6 km/h 66 % 0.0 in /  0 mm
11:12 18.3 °F /  -7.6 °C 11.6 °F /  -11.3 °C 1027.7 in /  34797.9 hPa ENE 1.6 mph /  2.6 km/h 11.3 mph /  18.2 km/h 65 % 0.0 in /  0 mm
11:17 18.3 °F /  -7.6 °C 11.4 °F /  -11.4 °C 1027.7 in /  34797.9 hPa ESE 1.6 mph /  2.6 km/h 8.0 mph /  12.9 km/h 64 % 0.0 in /  0 mm
11:22 18.3 °F /  -7.6 °C 11.1 °F /  -11.6 °C 1027.7 in /  34797.9 hPa East 6.4 mph /  10.3 km/h 8.0 mph /  12.9 km/h 63 % 0.0 in /  0 mm
11:32 18.3 °F /  -7.6 °C 11.6 °F /  -11.3 °C 1027.7 in /  34797.9 hPa NNE 3.2 mph /  5.1 km/h 11.3 mph /  18.2 km/h 65 % 0.0 in /  0 mm
11:42 18.4 °F /  -7.6 °C 11.2 °F /  -11.6 °C 1027.7 in /  34797.9 hPa Calm   11.3 mph /  18.2 km/h 63 % 0.0 in /  0 mm
11:47 18.7 °F /  -7.4 °C 11.3 °F /  -11.5 °C 1027.7 in /  34797.9 hPa ENE 1.6 mph /  2.6 km/h 11.3 mph /  18.2 km/h 62 % 0.0 in /  0 mm
11:52 18.7 °F /  -7.4 °C 11.0 °F /  -11.7 °C 1027.7 in /  34797.9 hPa ENE 1.6 mph /  2.6 km/h 11.3 mph /  18.2 km/h 61 % 0.0 in /  0 mm
12:02 19.0 °F /  -7.2 °C 11.3 °F /  -11.5 °C 1027.7 in /  34797.9 hPa Calm   11.3 mph /  18.2 km/h 61 % 0.0 in /  0 mm
12:12 20.1 °F /  -6.6 °C 11.3 °F /  -11.5 °C 1027.7 in /  34797.9 hPa South 1.6 mph /  2.6 km/h 8.0 mph /  12.9 km/h 57 % 0.0 in /  0 mm
12:17 20.3 °F /  -6.5 °C 11.5 °F /  -11.4 °C 1027.7 in /  34797.9 hPa Calm   4.8 mph /  7.7 km/h 57 % 0.0 in /  0 mm
12:22 20.4 °F /  -6.4 °C 10.8 °F /  -11.8 °C 1027.7 in /  34797.9 hPa West 6.4 mph /  10.3 km/h 6.4 mph /  10.3 km/h 54 % 0.0 in /  0 mm
12:32 20.2 °F /  -6.6 °C 11.1 °F /  -11.6 °C 1027.7 in /  34797.9 hPa Calm   6.4 mph /  10.3 km/h 56 % 0.0 in /  0 mm
12:42 19.7 °F /  -6.8 °C 10.4 °F /  -12 °C 1027.7 in /  34797.9 hPa NNW 6.4 mph /  10.3 km/h 6.4 mph /  10.3 km/h 55 % 0.0 in /  0 mm
12:47 19.6 °F /  -6.9 °C 10.6 °F /  -11.9 °C 1027.3 in /  34784.4 hPa East 1.6 mph /  2.6 km/h 11.3 mph /  18.2 km/h 56 % 0.0 in /  0 mm
12:52 19.6 °F /  -6.9 °C 10.3 °F /  -12.1 °C 1027.3 in /  34784.4 hPa Calm   11.3 mph /  18.2 km/h 55 % 0.0 in /  0 mm
12:57 19.7 °F /  -6.8 °C 10.7 °F /  -11.8 °C 1027.3 in /  34784.4 hPa Calm   11.3 mph /  18.2 km/h 56 % 0.0 in /  0 mm
13:02 20.0 °F /  -6.7 °C 11.0 °F /  -11.7 °C 1027.0 in /  34774.2 hPa West 3.2 mph /  5.1 km/h 11.3 mph /  18.2 km/h 56 % 0.0 in /  0 mm
13:12 19.5 °F /  -6.9 °C 10.5 °F /  -11.9 °C 1027.0 in /  34774.2 hPa NW 1.6 mph /  2.6 km/h 4.8 mph /  7.7 km/h 56 % 0.0 in /  0 mm
13:17 19.3 °F /  -7.1 °C 10.6 °F /  -11.9 °C 1027.0 in /  34774.2 hPa NW 3.2 mph /  5.1 km/h 8.0 mph /  12.9 km/h 57 % 0.0 in /  0 mm
13:22 19.7 °F /  -6.8 °C 10.9 °F /  -11.7 °C 1027.0 in /  34774.2 hPa SE 1.6 mph /  2.6 km/h 8.0 mph /  12.9 km/h 57 % 0.0 in /  0 mm
13:32 19.8 °F /  -6.8 °C 10.2 °F /  -12.1 °C 1027.0 in /  34774.2 hPa Calm   8.0 mph /  12.9 km/h 54 % 0.0 in /  0 mm
13:42 20.1 °F /  -6.6 °C 11.0 °F /  -11.7 °C 1027.0 in /  34774.2 hPa Calm   4.8 mph /  7.7 km/h 56 % 0.0 in /  0 mm
13:47 20.5 °F /  -6.4 °C 10.9 °F /  -11.7 °C 1027.0 in /  34774.2 hPa Calm   3.2 mph /  5.1 km/h 54 % 0.0 in /  0 mm
13:52 20.6 °F /  -6.3 °C 10.7 °F /  -11.8 °C 1027.0 in /  34774.2 hPa Calm   3.2 mph /  5.1 km/h 53 % 0.0 in /  0 mm
13:57 20.3 °F /  -6.5 °C 10.4 °F /  -12 °C 1027.0 in /  34774.2 hPa WNW 3.2 mph /  5.1 km/h 3.2 mph /  5.1 km/h 53 % 0.0 in /  0 mm
14:02 20.3 °F /  -6.5 °C 11.0 °F /  -11.7 °C 1027.0 in /  34774.2 hPa WSW 3.2 mph /  5.1 km/h 3.2 mph /  5.1 km/h 55 % 0.0 in /  0 mm
14:07 20.3 °F /  -6.5 °C 10.4 °F /  -12 °C 1027.0 in /  34774.2 hPa Calm   6.4 mph /  10.3 km/h 53 % 0.0 in /  0 mm
14:12 20.2 °F /  -6.6 °C 10.0 °F /  -12.2 °C 1027.0 in /  34774.2 hPa Calm   3.2 mph /  5.1 km/h 52 % 0.0 in /  0 mm
14:17 20.3 °F /  -6.5 °C 11.0 °F /  -11.7 °C 1027.0 in /  34774.2 hPa WNW 3.2 mph /  5.1 km/h 4.8 mph /  7.7 km/h 55 % 0.0 in /  0 mm
14:22 20.3 °F /  -6.5 °C 10.4 °F /  -12 °C 1027.0 in /  34774.2 hPa Calm   6.4 mph /  10.3 km/h 53 % 0.0 in /  0 mm
14:32 20.1 °F /  -6.6 °C 10.5 °F /  -11.9 °C 1027.0 in /  34774.2 hPa WSW 6.4 mph /  10.3 km/h 6.4 mph /  10.3 km/h 54 % 0.0 in /  0 mm
14:37 20.2 °F /  -6.6 °C 10.9 °F /  -11.7 °C 1027.0 in /  34774.2 hPa WNW 1.6 mph /  2.6 km/h 8.0 mph /  12.9 km/h 55 % 0.0 in /  0 mm
14:42 20.5 °F /  -6.4 °C 10.6 °F /  -11.9 °C 1027.0 in /  34774.2 hPa SW 1.6 mph /  2.6 km/h 6.4 mph /  10.3 km/h 53 % 0.0 in /  0 mm
14:52 21.1 °F /  -6.1 °C 10.3 °F /  -12.1 °C 1027.0 in /  34774.2 hPa WNW 6.4 mph /  10.3 km/h 14.5 mph /  23.3 km/h 50 % 0.0 in /  0 mm
14:57 20.9 °F /  -6.2 °C 11.0 °F /  -11.7 °C 1027.0 in /  34774.2 hPa WNW 3.2 mph /  5.1 km/h 14.5 mph /  23.3 km/h 53 % 0.0 in /  0 mm
15:02 21.1 °F /  -6.1 °C 9.7 °F /  -12.4 °C 1027.0 in /  34774.2 hPa WNW 6.4 mph /  10.3 km/h 14.5 mph /  23.3 km/h 48 % 0.0 in /  0 mm
15:12 21.6 °F /  -5.8 °C 10.4 °F /  -12 °C 1027.0 in /  34774.2 hPa North 3.2 mph /  5.1 km/h 12.9 mph /  20.8 km/h 49 % 0.0 in /  0 mm
15:17 22.0 °F /  -5.6 °C 11.4 °F /  -11.4 °C 1027.0 in /  34774.2 hPa NW 4.8 mph /  7.7 km/h 12.9 mph /  20.8 km/h 51 % 0.0 in /  0 mm
15:22 21.7 °F /  -5.7 °C 10.5 °F /  -11.9 °C 1026.6 in /  34760.7 hPa North 8.0 mph /  12.9 km/h 16.1 mph /  25.9 km/h 49 % 0.0 in /  0 mm
15:32 21.2 °F /  -6 °C 10.7 °F /  -11.8 °C 1026.6 in /  34760.7 hPa North 12.9 mph /  20.8 km/h 16.1 mph /  25.9 km/h 51 % 0.0 in /  0 mm
15:42 21.5 °F /  -5.8 °C 10.6 °F /  -11.9 °C 1026.6 in /  34760.7 hPa North 6.4 mph /  10.3 km/h 14.5 mph /  23.3 km/h 50 % 0.0 in /  0 mm
15:52 21.6 °F /  -5.8 °C 9.8 °F /  -12.3 °C 1026.6 in /  34760.7 hPa West 3.2 mph /  5.1 km/h 11.3 mph /  18.2 km/h 47 % 0.0 in /  0 mm
15:57 21.5 °F /  -5.8 °C 10.0 °F /  -12.2 °C 1026.6 in /  34760.7 hPa West 3.2 mph /  5.1 km/h 11.3 mph /  18.2 km/h 48 % 0.0 in /  0 mm
16:02 21.3 °F /  -5.9 °C 9.5 °F /  -12.5 °C 1026.6 in /  34760.7 hPa Calm   11.3 mph /  18.2 km/h 47 % 0.0 in /  0 mm
16:07 21.4 °F /  -5.9 °C 9.3 °F /  -12.6 °C 1026.6 in /  34760.7 hPa West 1.6 mph /  2.6 km/h 12.9 mph /  20.8 km/h 46 % 0.0 in /  0 mm
16:12 21.8 °F /  -5.7 °C 10.3 °F /  -12.1 °C 1026.6 in /  34760.7 hPa NW 3.2 mph /  5.1 km/h 12.9 mph /  20.8 km/h 48 % 0.0 in /  0 mm
16:17 21.6 °F /  -5.8 °C 10.1 °F /  -12.2 °C 1026.6 in /  34760.7 hPa NW 6.4 mph /  10.3 km/h 12.9 mph /  20.8 km/h 48 % 0.0 in /  0 mm
16:22 21.5 °F /  -5.8 °C 10.0 °F /  -12.2 °C 1026.6 in /  34760.7 hPa WNW 1.6 mph /  2.6 km/h 12.9 mph /  20.8 km/h 48 % 0.0 in /  0 mm
16:32 21.8 °F /  -5.7 °C 10.3 °F /  -12.1 °C 1026.6 in /  34760.7 hPa WSW 1.6 mph /  2.6 km/h 12.9 mph /  20.8 km/h 48 % 0.0 in /  0 mm
16:37 21.9 °F /  -5.6 °C 10.4 °F /  -12 °C 1026.6 in /  34760.7 hPa Calm   12.9 mph /  20.8 km/h 48 % 0.0 in /  0 mm
16:42 22.1 °F /  -5.5 °C 10.6 °F /  -11.9 °C 1026.3 in /  34750.5 hPa WSW 3.2 mph /  5.1 km/h 12.9 mph /  20.8 km/h 48 % 0.0 in /  0 mm
16:47 22.2 °F /  -5.4 °C 10.4 °F /  -12 °C 1026.3 in /  34750.5 hPa NNE 6.4 mph /  10.3 km/h 12.9 mph /  20.8 km/h 47 % 0.0 in /  0 mm
16:52 22.0 °F /  -5.6 °C 9.8 °F /  -12.3 °C 1026.3 in /  34750.5 hPa WSW 1.6 mph /  2.6 km/h 11.3 mph /  18.2 km/h 46 % 0.0 in /  0 mm
17:02 22.2 °F /  -5.4 °C 10.0 °F /  -12.2 °C 1026.3 in /  34750.5 hPa NNE 1.6 mph /  2.6 km/h 9.7 mph /  15.6 km/h 46 % 0.0 in /  0 mm
17:12 22.2 °F /  -5.4 °C 10.4 °F /  -12 °C 1026.3 in /  34750.5 hPa WNW 8.0 mph /  12.9 km/h 12.9 mph /  20.8 km/h 47 % 0.0 in /  0 mm
17:17 22.1 °F /  -5.5 °C 10.3 °F /  -12.1 °C 1026.3 in /  34750.5 hPa West 9.7 mph /  15.6 km/h 12.9 mph /  20.8 km/h 47 % 0.0 in /  0 mm
17:22 22.2 °F /  -5.4 °C 9.7 °F /  -12.4 °C 1026.3 in /  34750.5 hPa West 3.2 mph /  5.1 km/h 16.1 mph /  25.9 km/h 45 % 0.0 in /  0 mm
17:27 22.3 °F /  -5.4 °C 9.8 °F /  -12.3 °C 1026.0 in /  34740.4 hPa Calm   16.1 mph /  25.9 km/h 45 % 0.0 in /  0 mm
17:32 22.5 °F /  -5.3 °C 10.0 °F /  -12.2 °C 1026.0 in /  34740.4 hPa West 1.6 mph /  2.6 km/h 16.1 mph /  25.9 km/h 45 % 0.0 in /  0 mm
17:42 22.3 °F /  -5.4 °C 10.1 °F /  -12.2 °C 1026.0 in /  34740.4 hPa NNE 8.0 mph /  12.9 km/h 11.3 mph /  18.2 km/h 46 % 0.0 in /  0 mm
17:47 22.2 °F /  -5.4 °C 9.7 °F /  -12.4 °C 1026.0 in /  34740.4 hPa Calm   12.9 mph /  20.8 km/h 45 % 0.0 in /  0 mm
17:52 22.3 °F /  -5.4 °C 10.1 °F /  -12.2 °C 1026.0 in /  34740.4 hPa Calm   12.9 mph /  20.8 km/h 46 % 0.0 in /  0 mm
17:57 22.2 °F /  -5.4 °C 10.0 °F /  -12.2 °C 1026.0 in /  34740.4 hPa WNW 3.2 mph /  5.1 km/h 12.9 mph /  20.8 km/h 46 % 0.0 in /  0 mm
18:02 21.8 °F /  -5.7 °C 10.0 °F /  -12.2 °C 1026.0 in /  34740.4 hPa North 6.4 mph /  10.3 km/h 12.9 mph /  20.8 km/h 47 % 0.0 in /  0 mm
18:12 21.4 °F /  -5.9 °C 10.5 °F /  -11.9 °C 1026.0 in /  34740.4 hPa NNE 4.8 mph /  7.7 km/h 11.3 mph /  18.2 km/h 50 % 0.0 in /  0 mm
18:17 21.6 °F /  -5.8 °C 10.1 °F /  -12.2 °C 1026.0 in /  34740.4 hPa NE 6.4 mph /  10.3 km/h 11.3 mph /  18.2 km/h 48 % 0.0 in /  0 mm
18:22 21.8 °F /  -5.7 °C 10.3 °F /  -12.1 °C 1026.0 in /  34740.4 hPa NNW 4.8 mph /  7.7 km/h 9.7 mph /  15.6 km/h 48 % 0.0 in /  0 mm
18:27 21.9 °F /  -5.6 °C 10.1 °F /  -12.2 °C 1026.0 in /  34740.4 hPa Calm   9.7 mph /  15.6 km/h 47 % 0.0 in /  0 mm
18:32 22.2 °F /  -5.4 °C 10.4 °F /  -12 °C 1026.0 in /  34740.4 hPa ENE 6.4 mph /  10.3 km/h 11.3 mph /  18.2 km/h 47 % 0.0 in /  0 mm
18:37 22.2 °F /  -5.4 °C 10.0 °F /  -12.2 °C 1026.0 in /  34740.4 hPa North 1.6 mph /  2.6 km/h 11.3 mph /  18.2 km/h 46 % 0.0 in /  0 mm
18:42 22.2 °F /  -5.4 °C 10.0 °F /  -12.2 °C 1026.0 in /  34740.4 hPa NNW 4.8 mph /  7.7 km/h 9.7 mph /  15.6 km/h 46 % 0.0 in /  0 mm
18:47 22.1 °F /  -5.5 °C 10.3 °F /  -12.1 °C 1026.0 in /  34740.4 hPa NNW 8.0 mph /  12.9 km/h 12.9 mph /  20.8 km/h 47 % 0.0 in /  0 mm
18:52 22.2 °F /  -5.4 °C 10.0 °F /  -12.2 °C 1026.0 in /  34740.4 hPa WNW 4.8 mph /  7.7 km/h 12.9 mph /  20.8 km/h 46 % 0.0 in /  0 mm
18:57 22.2 °F /  -5.4 °C 10.4 °F /  -12 °C 1025.6 in /  34726.8 hPa North 6.4 mph /  10.3 km/h 12.9 mph /  20.8 km/h 47 % 0.0 in /  0 mm
19:02 22.2 °F /  -5.4 °C 10.4 °F /  -12 °C 1025.6 in /  34726.8 hPa North 4.8 mph /  7.7 km/h 12.9 mph /  20.8 km/h 47 % 0.0 in /  0 mm
19:12 22.2 °F /  -5.4 °C 10.7 °F /  -11.8 °C 1025.6 in /  34726.8 hPa NE 1.6 mph /  2.6 km/h 8.0 mph /  12.9 km/h 48 % 0.0 in /  0 mm
19:17 22.2 °F /  -5.4 °C 10.0 °F /  -12.2 °C 1025.6 in /  34726.8 hPa North 3.2 mph /  5.1 km/h 8.0 mph /  12.9 km/h 46 % 0.0 in /  0 mm
19:22 21.9 °F /  -5.6 °C 10.1 °F /  -12.2 °C 1026.0 in /  34740.4 hPa NNE 3.2 mph /  5.1 km/h 8.0 mph /  12.9 km/h 47 % 0.0 in /  0 mm
19:32 22.1 °F /  -5.5 °C 9.9 °F /  -12.3 °C 1025.6 in /  34726.8 hPa NNW 1.6 mph /  2.6 km/h 8.0 mph /  12.9 km/h 46 % 0.0 in /  0 mm
19:37 22.2 °F /  -5.4 °C 10.0 °F /  -12.2 °C 1025.6 in /  34726.8 hPa WNW 3.2 mph /  5.1 km/h 6.4 mph /  10.3 km/h 46 % 0.0 in /  0 mm
19:42 22.2 °F /  -5.4 °C 10.0 °F /  -12.2 °C 1025.6 in /  34726.8 hPa Calm   4.8 mph /  7.7 km/h 46 % 0.0 in /  0 mm
19:47 22.2 °F /  -5.4 °C 10.7 °F /  -11.8 °C 1025.6 in /  34726.8 hPa Calm   6.4 mph /  10.3 km/h 48 % 0.0 in /  0 mm
19:52 22.1 °F /  -5.5 °C 10.6 °F /  -11.9 °C 1025.6 in /  34726.8 hPa West 1.6 mph /  2.6 km/h 6.4 mph /  10.3 km/h 48 % 0.0 in /  0 mm
20:02 21.9 °F /  -5.6 °C 10.4 °F /  -12 °C 1025.6 in /  34726.8 hPa WNW 1.6 mph /  2.6 km/h 6.4 mph /  10.3 km/h 48 % 0.0 in /  0 mm
20:12 21.6 °F /  -5.8 °C 10.7 °F /  -11.8 °C 1025.6 in /  34726.8 hPa NW 1.6 mph /  2.6 km/h 6.4 mph /  10.3 km/h 50 % 0.0 in /  0 mm
20:17 21.3 °F /  -5.9 °C 10.8 °F /  -11.8 °C 1025.6 in /  34726.8 hPa NW 3.2 mph /  5.1 km/h 6.4 mph /  10.3 km/h 51 % 0.0 in /  0 mm
20:22 21.2 °F /  -6 °C 11.0 °F /  -11.7 °C 1025.6 in /  34726.8 hPa Calm   6.4 mph /  10.3 km/h 52 % 0.0 in /  0 mm
20:32 20.8 °F /  -6.2 °C 10.9 °F /  -11.7 °C 1025.6 in /  34726.8 hPa Calm   6.4 mph /  10.3 km/h 53 % 0.0 in /  0 mm
20:37 20.7 °F /  -6.3 °C 10.8 °F /  -11.8 °C 1025.6 in /  34726.8 hPa Calm   3.2 mph /  5.1 km/h 53 % 0.0 in /  0 mm
20:42 20.4 °F /  -6.4 °C 11.1 °F /  -11.6 °C 1025.6 in /  34726.8 hPa Calm   1.6 mph /  2.6 km/h 55 % 0.0 in /  0 mm
20:47 19.8 °F /  -6.8 °C 11.6 °F /  -11.3 °C 1025.6 in /  34726.8 hPa NNE 1.6 mph /  2.6 km/h 1.6 mph /  2.6 km/h 59 % 0.0 in /  0 mm
20:52 19.2 °F /  -7.1 °C 11.7 °F /  -11.3 °C 1026.0 in /  34740.4 hPa Calm   1.6 mph /  2.6 km/h 62 % 0.0 in /  0 mm
20:57 18.8 °F /  -7.3 °C 11.4 °F /  -11.4 °C 1026.0 in /  34740.4 hPa Calm   3.2 mph /  5.1 km/h 62 % 0.0 in /  0 mm
21:02 18.6 °F /  -7.4 °C 10.9 °F /  -11.7 °C 1026.0 in /  34740.4 hPa Calm   3.2 mph /  5.1 km/h 61 % 0.0 in /  0 mm
21:12 18.4 °F /  -7.6 °C 11.2 °F /  -11.6 °C 1026.0 in /  34740.4 hPa Calm   3.2 mph /  5.1 km/h 63 % 0.0 in /  0 mm
21:17 18.2 °F /  -7.7 °C 11.3 °F /  -11.5 °C 1026.0 in /  34740.4 hPa NNW 1.6 mph /  2.6 km/h 1.6 mph /  2.6 km/h 64 % 0.0 in /  0 mm
21:22 18.0 °F /  -7.8 °C 11.3 °F /  -11.5 °C 1026.0 in /  34740.4 hPa Calm   1.6 mph /  2.6 km/h 65 % 0.0 in /  0 mm
21:32 17.5 °F /  -8.1 °C 11.5 °F /  -11.4 °C 1026.0 in /  34740.4 hPa Calm   1.6 mph /  2.6 km/h 68 % 0.0 in /  0 mm
21:42 17.0 °F /  -8.3 °C 11.3 °F /  -11.5 °C 1026.0 in /  34740.4 hPa Calm   1.6 mph /  2.6 km/h 69 % 0.0 in /  0 mm
21:52 16.7 °F /  -8.5 °C 11.2 °F /  -11.6 °C 1026.0 in /  34740.4 hPa Calm   1.6 mph /  2.6 km/h 70 % 0.0 in /  0 mm
21:57 16.7 °F /  -8.5 °C 11.4 °F /  -11.4 °C 1026.0 in /  34740.4 hPa NW 1.6 mph /  2.6 km/h 1.6 mph /  2.6 km/h 71 % 0.0 in /  0 mm
22:02 16.6 °F /  -8.6 °C 11.1 °F /  -11.6 °C 1026.0 in /  34740.4 hPa NW 3.2 mph /  5.1 km/h 3.2 mph /  5.1 km/h 70 % 0.0 in /  0 mm
22:12 16.3 °F /  -8.7 °C 10.8 °F /  -11.8 °C 1026.0 in /  34740.4 hPa Calm   3.2 mph /  5.1 km/h 70 % 0.0 in /  0 mm
22:22 15.9 °F /  -8.9 °C 10.9 °F /  -11.7 °C 1026.0 in /  34740.4 hPa WNW 1.6 mph /  2.6 km/h 3.2 mph /  5.1 km/h 72 % 0.0 in /  0 mm
22:27 15.7 °F /  -9.1 °C 10.9 °F /  -11.7 °C 1026.0 in /  34740.4 hPa WNW 1.6 mph /  2.6 km/h 3.2 mph /  5.1 km/h 73 % 0.0 in /  0 mm
22:32 15.6 °F /  -9.1 °C 11.0 °F /  -11.7 °C 1026.0 in /  34740.4 hPa WNW 1.6 mph /  2.6 km/h 3.2 mph /  5.1 km/h 74 % 0.0 in /  0 mm
22:37 15.4 °F /  -9.2 °C 11.2 °F /  -11.6 °C 1026.3 in /  34750.5 hPa WNW 1.6 mph /  2.6 km/h 3.2 mph /  5.1 km/h 76 % 0.0 in /  0 mm
22:42 15.2 °F /  -9.3 °C 11.0 °F /  -11.7 °C 1026.3 in /  34750.5 hPa Calm   1.6 mph /  2.6 km/h 76 % 0.0 in /  0 mm
22:52 15.1 °F /  -9.4 °C 11.1 °F /  -11.6 °C 1026.3 in /  34750.5 hPa Calm   1.6 mph /  2.6 km/h 77 % 0.0 in /  0 mm
23:02 15.0 °F /  -9.4 °C 11.0 °F /  -11.7 °C 1026.3 in /  34750.5 hPa Calm   1.6 mph /  2.6 km/h 77 % 0.0 in /  0 mm
23:12 15.0 °F /  -9.4 °C 11.0 °F /  -11.7 °C 1026.3 in /  34750.5 hPa Calm   1.6 mph /  2.6 km/h 77 % 0.0 in /  0 mm
23:17 14.8 °F /  -9.6 °C 11.0 °F /  -11.7 °C 1026.3 in /  34750.5 hPa Calm     78 % 0.0 in /  0 mm
23:22 14.7 °F /  -9.6 °C 11.1 °F /  -11.6 °C 1026.3 in /  34750.5 hPa NW 1.6 mph /  2.6 km/h   79 % 0.0 in /  0 mm
23:32 14.3 °F /  -9.8 °C 11.1 °F /  -11.6 °C 1026.3 in /  34750.5 hPa WNW 1.6 mph /  2.6 km/h 1.6 mph /  2.6 km/h 81 % 0.0 in /  0 mm
23:42 14.2 °F /  -9.9 °C 11.0 °F /  -11.7 °C 1026.0 in /  34740.4 hPa WNW 1.6 mph /  2.6 km/h 3.2 mph /  5.1 km/h 81 % 0.0 in /  0 mm
23:47 14.1 °F /  -9.9 °C 10.9 °F /  -11.7 °C 1026.0 in /  34740.4 hPa Calm   3.2 mph /  5.1 km/h 81 % 0.0 in /  0 mm
23:52 14.1 °F /  -9.9 °C 10.9 °F /  -11.7 °C 1026.0 in /  34740.4 hPa WNW 1.6 mph /  2.6 km/h -1607.4 mph /  -2586.8 km/h 81 % 0.0 in /  0 mm
Meteo18
Compliments of Weather Underground - 4 mb

Script developed by  Jim McMurry - jmcmurry@mwt.net Adapted for the template by  Wim van der Kuil - Leuven-Template.eu

You find our weather info also at:

European Weather Network

Weather Underground

Equipment we use:

Weather-station
Davis Vue

Weather-program
Meteobridge

Weather-server
Raspberry PI 2 B+

Provider
1 and 1

Davis Vue

Meteobridge

Raspberry PI 2 B+

1 and 1